Time;durP1;ratioP1;P1;durP2;ratioP2;P2;SDS_P1;SDS_P2;PMS_P1;PMS_P2;Temp;Humidity;BMP_temperature;BMP_pressure;BME280_temperature;BME280_humidity;BME280_pressure;Samples;Min_cycle;Max_cycle;Signal;HPM_P1;HPM_P2
2023/04/23 00:00:06;;;;;;;9.30;7.00;;;16.60;62.40;;;;;;4998336;28;20049;-69
2023/04/23 00:02:33;;;;;;;10.27;6.60;;;16.60;62.60;;;;;;4997961;28;20029;-69
2023/04/23 00:05:05;;;;;;;11.02;6.60;;;16.60;62.70;;;;;;5000849;28;20557;-71
2023/04/23 00:07:33;;;;;;;8.18;6.78;;;16.60;62.80;;;;;;4997827;28;20059;-70
2023/04/23 00:09:59;;;;;;;9.90;6.68;;;16.50;63.00;;;;;;4997936;28;20025;-71
2023/04/23 00:12:26;;;;;;;8.90;6.75;;;16.50;63.00;;;;;;5001278;28;20612;-70
2023/04/23 00:14:52;;;;;;;11.30;6.72;;;16.50;63.10;;;;;;4996264;28;20034;-70
2023/04/23 00:17:18;;;;;;;7.45;6.10;;;16.50;63.30;;;;;;4996190;28;20038;-70
2023/04/23 00:19:45;;;;;;;10.98;6.90;;;16.50;63.40;;;;;;4995819;28;20728;-71
2023/04/23 00:22:12;;;;;;;11.23;6.75;;;16.40;63.40;;;;;;4997392;28;20042;-70
2023/04/23 00:24:38;;;;;;;7.38;5.82;;;16.40;63.40;;;;;;4998056;28;20122;-71
2023/04/23 00:27:04;;;;;;;11.48;6.18;;;16.40;63.70;;;;;;4994424;28;20470;-70
2023/04/23 00:29:30;;;;;;;10.55;6.45;;;16.40;63.70;;;;;;4996395;28;20080;-71
2023/04/23 00:31:56;;;;;;;10.32;6.93;;;16.40;63.80;;;;;;4995659;28;20115;-70
2023/04/23 00:34:22;;;;;;;10.57;7.10;;;16.40;63.90;;;;;;4996187;28;20578;-70
2023/04/23 00:36:47;;;;;;;10.48;7.22;;;16.30;64.00;;;;;;4996230;28;20026;-70
2023/04/23 00:39:13;;;;;;;9.95;6.75;;;16.40;64.20;;;;;;4997229;28;20399;-69
2023/04/23 00:41:41;;;;;;;10.07;6.70;;;16.30;64.20;;;;;;4997471;28;20088;-69
2023/04/23 00:44:07;;;;;;;7.72;5.95;;;16.30;64.40;;;;;;4997442;28;20568;-69
2023/04/23 00:46:34;;;;;;;10.52;6.85;;;16.30;64.50;;;;;;4996141;28;20042;-70
2023/04/23 00:49:01;;;;;;;11.10;6.50;;;16.30;65.10;;;;;;5010639;28;20045;-69
2023/04/23 00:51:27;;;;;;;8.90;6.72;;;16.40;64.70;;;;;;4996921;28;20029;-70
2023/04/23 00:53:53;;;;;;;8.43;6.63;;;16.40;64.80;;;;;;4996101;28;20312;-69
2023/04/23 00:56:20;;;;;;;9.82;6.28;;;16.40;64.90;;;;;;4996155;28;20371;-70
2023/04/23 00:58:46;;;;;;;11.05;6.07;;;16.40;65.00;;;;;;4996888;28;20025;-71
2023/04/23 01:01:12;;;;;;;7.90;6.35;;;16.40;65.10;;;;;;4996481;28;20127;-72
2023/04/23 01:03:41;;;;;;;9.45;6.22;;;16.40;65.20;;;;;;4997046;28;22269;-72
2023/04/23 01:06:07;;;;;;;7.55;6.10;;;16.40;65.20;;;;;;4996065;28;20046;-71
2023/04/23 01:08:35;;;;;;;8.02;6.65;;;16.40;65.20;;;;;;4997357;28;20030;-71
2023/04/23 01:11:02;;;;;;;8.55;6.35;;;16.40;65.30;;;;;;4999470;28;20026;-72
2023/04/23 01:13:29;;;;;;;9.27;7.00;;;16.40;65.40;;;;;;4997417;28;20479;-72
2023/04/23 01:15:55;;;;;;;10.55;7.28;;;16.40;65.60;;;;;;4994954;28;20034;-71
2023/04/23 01:18:22;;;;;;;11.45;6.30;;;16.40;65.70;;;;;;4997403;28;20026;-71
2023/04/23 01:20:48;;;;;;;8.55;6.28;;;16.40;65.70;;;;;;4995022;28;20148;-71
2023/04/23 01:23:15;;;;;;;8.88;6.65;;;16.40;65.80;;;;;;4996907;28;20041;-70
2023/04/23 01:25:42;;;;;;;10.35;6.63;;;16.40;65.90;;;;;;4994270;28;20040;-71
2023/04/23 01:28:07;;;;;;;8.10;6.07;;;16.40;66.10;;;;;;4996910;28;20069;-70
2023/04/23 01:30:34;;;;;;;12.38;7.43;;;16.50;66.10;;;;;;4995548;28;20066;-70
2023/04/23 01:33:01;;;;;;;11.48;6.10;;;16.40;66.30;;;;;;5012053;28;20026;-70
2023/04/23 01:35:28;;;;;;;8.88;6.18;;;16.40;66.30;;;;;;4993979;28;20397;-70
2023/04/23 01:37:54;;;;;;;9.88;6.30;;;16.40;66.40;;;;;;5009703;28;20064;-70
2023/04/23 01:40:20;;;;;;;8.73;6.95;;;16.40;66.50;;;;;;4996715;28;20473;-70
2023/04/23 01:42:48;;;;;;;8.95;6.75;;;16.30;67.10;;;;;;4993063;28;20038;-71
2023/04/23 01:45:13;;;;;;;11.48;6.88;;;16.30;66.70;;;;;;4996587;28;20025;-71
2023/04/23 01:47:40;;;;;;;10.43;6.03;;;16.30;66.70;;;;;;4996768;28;20266;-71
2023/04/23 01:50:07;;;;;;;9.18;7.00;;;16.40;66.90;;;;;;4994698;28;20084;-71
2023/04/23 01:52:33;;;;;;;11.13;7.05;;;16.40;67.00;;;;;;4999451;28;20030;-71
2023/04/23 01:54:58;;;;;;;8.90;6.63;;;16.40;67.10;;;;;;4994551;28;20061;-71
2023/04/23 01:57:25;;;;;;;9.00;5.97;;;16.40;67.10;;;;;;4996384;28;20041;-71
2023/04/23 02:00:10;;;;;;;8.52;7.30;;;16.40;67.20;;;;;;4994007;28;20120;-71
2023/04/23 02:02:36;;;;;;;8.05;6.15;;;16.40;67.50;;;;;;4994601;28;20026;-71
2023/04/23 02:05:06;;;;;;;9.55;6.72;;;16.40;67.60;;;;;;4995072;28;20038;-71
2023/04/23 02:07:32;;;;;;;8.82;7.13;;;16.40;67.80;;;;;;4995495;28;20041;-70
2023/04/23 02:09:59;;;;;;;8.43;6.50;;;16.40;68.10;;;;;;4996011;28;20482;-71
2023/04/23 02:12:25;;;;;;;10.70;7.18;;;16.40;68.40;;;;;;4996024;28;20041;-70
2023/04/23 02:14:51;;;;;;;10.23;6.50;;;16.40;68.80;;;;;;4995077;28;20470;-73
2023/04/23 02:17:20;;;;;;;11.38;7.40;;;16.40;69.60;;;;;;4994309;28;20065;-75
2023/04/23 02:19:46;;;;;;;10.73;7.13;;;16.30;70.00;;;;;;4993129;28;20030;-74
2023/04/23 02:22:11;;;;;;;10.13;7.85;;;16.30;71.30;;;;;;4992675;28;20026;-75
2023/04/23 02:24:37;;;;;;;21.05;7.97;;;16.30;72.70;;;;;;4993207;28;20038;-75
2023/04/23 02:27:03;;;;;;;13.50;9.10;;;16.30;74.20;;;;;;4993047;28;20050;-75
2023/04/23 02:29:29;;;;;;;12.77;8.75;;;16.20;75.40;;;;;;4991496;28;20049;-75
2023/04/23 02:31:55;;;;;;;11.05;8.68;;;16.10;76.20;;;;;;4991223;28;20030;-75
2023/04/23 02:34:20;;;;;;;14.00;8.88;;;16.10;77.40;;;;;;4991713;28;20103;-74
2023/04/23 02:36:46;;;;;;;10.98;8.90;;;16.10;78.40;;;;;;4991608;28;20393;-75
2023/04/23 02:39:11;;;;;;;12.95;9.05;;;16.00;79.20;;;;;;4994211;28;20481;-75
2023/04/23 02:41:37;;;;;;;11.65;9.52;;;15.90;80.00;;;;;;4992996;28;20022;-74
2023/04/23 02:44:03;;;;;;;11.85;8.90;;;15.90;80.70;;;;;;4995519;28;20109;-74
2023/04/23 02:46:28;;;;;;;10.80;9.38;;;15.90;81.30;;;;;;4993233;28;20046;-73
2023/04/23 02:48:54;;;;;;;11.77;8.88;;;15.90;81.90;;;;;;4994202;28;20405;-73
2023/04/23 02:51:20;;;;;;;10.98;8.32;;;15.90;82.20;;;;;;4993439;28;20030;-73
2023/04/23 02:53:45;;;;;;;13.90;9.73;;;15.90;82.60;;;;;;4994146;28;20091;-73
2023/04/23 02:56:11;;;;;;;10.82;8.05;;;15.90;82.90;;;;;;4994875;28;20065;-73
2023/04/23 02:58:36;;;;;;;13.02;9.75;;;15.90;83.20;;;;;;4995581;28;20137;-72
2023/04/23 03:01:02;;;;;;;10.30;8.32;;;15.90;83.80;;;;;;4994411;28;20107;-73
2023/04/23 03:03:30;;;;;;;10.70;9.18;;;15.80;84.60;;;;;;4996861;28;20447;-72
2023/04/23 03:05:57;;;;;;;13.95;9.60;;;15.80;85.40;;;;;;4998546;28;20022;-73
2023/04/23 03:08:22;;;;;;;11.02;9.65;;;15.80;86.10;;;;;;4999862;28;20094;-73
2023/04/23 03:10:48;;;;;;;11.73;8.82;;;15.80;86.70;;;;;;5007986;28;20034;-73
2023/04/23 03:13:14;;;;;;;11.02;9.27;;;15.80;87.10;;;;;;4997173;28;20022;-74
2023/04/23 03:15:40;;;;;;;11.73;9.32;;;15.80;87.40;;;;;;4997811;28;20025;-73
2023/04/23 03:18:07;;;;;;;12.43;9.40;;;15.80;88.00;;;;;;4995462;28;20030;-74
2023/04/23 03:20:33;;;;;;;12.50;9.55;;;15.80;88.80;;;;;;4999294;28;20478;-73
2023/04/23 03:22:58;;;;;;;12.13;9.90;;;15.70;89.60;;;;;;4996830;28;20061;-73
2023/04/23 03:25:24;;;;;;;13.88;10.10;;;15.70;90.10;;;;;;4996642;28;20506;-72
2023/04/23 03:27:51;;;;;;;10.90;9.25;;;15.70;90.40;;;;;;4997500;28;20148;-74
2023/04/23 03:30:17;;;;;;;10.57;9.45;;;15.70;90.70;;;;;;4995181;28;20026;-73
2023/04/23 03:32:42;;;;;;;15.65;10.35;;;15.70;91.00;;;;;;4994970;28;20037;-73
2023/04/23 03:35:08;;;;;;;12.75;9.60;;;15.60;91.20;;;;;;4996949;28;20026;-73
2023/04/23 03:37:34;;;;;;;10.93;9.65;;;15.60;91.50;;;;;;4998111;28;20532;-73
2023/04/23 03:40:06;;;;;;;13.73;9.40;;;15.60;91.80;;;;;;4997175;28;20123;-73
2023/04/23 03:42:32;;;;;;;15.88;10.45;;;15.60;92.00;;;;;;4997672;28;20038;-73
2023/04/23 03:44:59;;;;;;;12.85;10.27;;;15.60;92.30;;;;;;4994953;28;20029;-73
2023/04/23 03:47:24;;;;;;;13.70;10.45;;;15.60;92.60;;;;;;4996455;28;20046;-73
2023/04/23 03:49:50;;;;;;;14.73;10.43;;;15.60;92.70;;;;;;4982818;28;20033;-74
2023/04/23 03:52:15;;;;;;;12.73;10.60;;;15.60;92.90;;;;;;4997391;28;20034;-74
2023/04/23 03:54:41;;;;;;;13.45;11.05;;;15.60;93.20;;;;;;4999360;28;20034;-74
2023/04/23 03:57:08;;;;;;;13.10;11.02;;;15.60;93.40;;;;;;4997946;28;20449;-74
2023/04/23 03:59:34;;;;;;;14.07;11.55;;;15.50;93.70;;;;;;4996226;28;20128;-73
2023/04/23 04:02:02;;;;;;;12.95;10.68;;;15.50;93.90;;;;;;4996861;28;20185;-74
2023/04/23 04:04:29;;;;;;;15.60;10.18;;;15.50;94.10;;;;;;4996613;28;20046;-74
2023/04/23 04:06:55;;;;;;;14.65;11.73;;;15.50;94.40;;;;;;4996918;28;20050;-74
2023/04/23 04:09:21;;;;;;;14.80;10.88;;;15.50;94.60;;;;;;5011897;28;20113;-74
2023/04/23 04:11:46;;;;;;;13.05;10.45;;;15.50;94.80;;;;;;4996623;28;20022;-74
2023/04/23 04:14:12;;;;;;;15.60;10.15;;;15.60;94.90;;;;;;4996714;28;20034;-74
2023/04/23 04:16:38;;;;;;;12.85;10.43;;;15.60;95.00;;;;;;4996429;28;20042;-74
2023/04/23 04:19:05;;;;;;;13.48;9.93;;;15.60;95.20;;;;;;4997386;28;20033;-74
2023/04/23 04:21:32;;;;;;;12.77;9.23;;;15.70;95.40;;;;;;4995476;28;20038;-74
2023/04/23 04:24:00;;;;;;;10.25;8.95;;;15.70;95.40;;;;;;4995983;28;20089;-75
2023/04/23 04:26:27;;;;;;;13.68;9.25;;;15.70;95.50;;;;;;4996496;28;20067;-74
2023/04/23 04:28:53;;;;;;;11.20;9.32;;;15.80;95.50;;;;;;5001254;28;20124;-73
2023/04/23 04:31:20;;;;;;;11.57;8.90;;;15.80;95.60;;;;;;4996259;28;20056;-73
2023/04/23 04:33:46;;;;;;;13.77;8.63;;;15.80;95.70;;;;;;4995896;28;20074;-72
2023/04/23 04:36:13;;;;;;;11.23;8.57;;;15.80;95.70;;;;;;4997705;28;20586;-72
2023/04/23 04:38:39;;;;;;;11.98;8.95;;;15.90;95.90;;;;;;4995849;28;20045;-72
2023/04/23 04:41:05;;;;;;;10.57;8.63;;;15.80;96.30;;;;;;4997730;28;20102;-72
2023/04/23 04:43:31;;;;;;;11.02;9.10;;;15.90;96.30;;;;;;4994814;28;20076;-72
2023/04/23 04:46:00;;;;;;;15.93;8.50;;;15.90;96.50;;;;;;4997191;28;20052;-72
2023/04/23 04:48:26;;;;;;;11.85;9.30;;;15.90;96.70;;;;;;4994451;28;20362;-72
2023/04/23 04:50:52;;;;;;;11.75;10.02;;;15.90;96.80;;;;;;4997267;28;20301;-72
2023/04/23 04:53:17;;;;;;;11.13;8.27;;;15.90;97.00;;;;;;4996444;28;20081;-72
2023/04/23 04:55:43;;;;;;;11.88;7.90;;;16.00;97.10;;;;;;4996269;28;20109;-73
2023/04/23 04:58:09;;;;;;;11.10;8.23;;;16.00;97.20;;;;;;4996194;28;20257;-72
2023/04/23 05:00:34;;;;;;;11.55;8.60;;;16.00;97.30;;;;;;5009486;28;20445;-72
2023/04/23 05:03:00;;;;;;;10.43;8.30;;;16.10;97.50;;;;;;4993332;28;20518;-72
2023/04/23 05:05:26;;;;;;;11.90;9.07;;;16.10;97.60;;;;;;5003815;28;20056;-72
2023/04/23 05:07:53;;;;;;;10.32;8.38;;;16.10;97.80;;;;;;4996253;28;20041;-70
2023/04/23 05:10:20;;;;;;;10.38;8.23;;;16.10;97.90;;;;;;4996826;28;20097;-70
2023/04/23 05:12:46;;;;;;;10.13;8.27;;;16.20;98.00;;;;;;4995404;28;20125;-72
2023/04/23 05:15:13;;;;;;;8.88;7.47;;;16.20;98.10;;;;;;5006557;28;20085;-73
2023/04/23 05:17:42;;;;;;;10.75;7.47;;;16.20;98.20;;;;;;4994924;28;20502;-73
2023/04/23 05:20:11;;;;;;;11.35;7.97;;;16.20;98.30;;;;;;4999497;28;20026;-72
2023/04/23 05:22:41;;;;;;;10.63;7.78;;;16.20;98.40;;;;;;4996587;28;20096;-72
2023/04/23 05:25:08;;;;;;;9.32;7.60;;;16.30;98.50;;;;;;4995141;28;20036;-72
2023/04/23 05:27:34;;;;;;;9.75;7.97;;;16.30;98.50;;;;;;4996718;28;20501;-74
2023/04/23 05:30:01;;;;;;;9.73;7.25;;;16.40;98.60;;;;;;4995935;28;20038;-74
2023/04/23 05:32:27;;;;;;;10.23;7.97;;;16.40;98.70;;;;;;4995010;28;20030;-74
2023/04/23 05:34:53;;;;;;;10.20;7.55;;;16.40;98.70;;;;;;4993645;28;20382;-73
2023/04/23 05:37:18;;;;;;;11.70;7.82;;;16.40;98.80;;;;;;4994663;28;20224;-73
2023/04/23 05:39:44;;;;;;;9.70;7.53;;;16.50;98.90;;;;;;4994078;28;20026;-74
2023/04/23 05:42:10;;;;;;;12.48;8.25;;;16.50;98.90;;;;;;4996295;28;20449;-74
2023/04/23 05:44:35;;;;;;;10.35;7.72;;;16.60;98.90;;;;;;4993761;28;20033;-75
2023/04/23 05:47:01;;;;;;;11.52;7.55;;;16.60;99.00;;;;;;4994443;28;20045;-75
2023/04/23 05:49:27;;;;;;;11.40;8.60;;;16.60;99.00;;;;;;4996592;28;20418;-75
2023/04/23 05:51:52;;;;;;;13.57;8.15;;;16.60;99.00;;;;;;4993593;28;20513;-75
2023/04/23 05:54:18;;;;;;;8.85;7.55;;;16.60;99.10;;;;;;4994033;28;20031;-75
2023/04/23 05:56:44;;;;;;;9.98;6.78;;;16.70;99.10;;;;;;4995162;28;20038;-75
2023/04/23 05:59:10;;;;;;;9.80;7.18;;;16.80;99.10;;;;;;5005428;28;20083;-76
2023/04/23 06:01:36;;;;;;;8.57;7.03;;;16.80;99.10;;;;;;4993492;28;20053;-74
2023/04/23 06:04:02;;;;;;;8.18;6.43;;;16.90;99.00;;;;;;4993376;28;20385;-74
2023/04/23 06:06:28;;;;;;;9.10;6.72;;;17.00;99.00;;;;;;4992259;28;20073;-72
2023/04/23 06:08:53;;;;;;;7.95;6.60;;;17.00;98.90;;;;;;4998292;28;20044;-71
2023/04/23 06:11:20;;;;;;;9.15;5.70;;;17.10;98.80;;;;;;4993033;28;20030;-71
2023/04/23 06:13:46;;;;;;;10.48;5.78;;;17.10;98.80;;;;;;4990076;28;20080;-71
2023/04/23 06:16:11;;;;;;;9.13;5.45;;;17.10;98.80;;;;;;4995326;28;20033;-70
2023/04/23 06:18:38;;;;;;;7.88;5.28;;;17.20;98.70;;;;;;4993452;28;20039;-72
2023/04/23 06:21:04;;;;;;;9.63;5.57;;;17.20;98.70;;;;;;4993716;28;20050;-71
2023/04/23 06:23:31;;;;;;;9.02;5.90;;;17.20;98.70;;;;;;4994128;28;20042;-72
2023/04/23 06:25:57;;;;;;;7.57;5.30;;;17.20;98.70;;;;;;4995253;28;20036;-70
2023/04/23 06:28:22;;;;;;;7.38;5.00;;;17.20;98.80;;;;;;4991902;28;20398;-73
2023/04/23 06:30:48;;;;;;;7.35;5.72;;;17.30;98.70;;;;;;4994596;28;20072;-71
2023/04/23 06:33:14;;;;;;;8.18;5.30;;;17.30;98.70;;;;;;4991411;28;20092;-72
2023/04/23 06:35:39;;;;;;;6.93;5.07;;;17.40;98.70;;;;;;4993865;28;20481;-72
2023/04/23 06:38:05;;;;;;;5.78;5.18;;;17.40;98.70;;;;;;4993485;28;21129;-72
2023/04/23 06:40:32;;;;;;;6.53;4.95;;;17.40;98.60;;;;;;4994935;28;20025;-73
2023/04/23 06:42:58;;;;;;;6.10;4.70;;;17.50;98.60;;;;;;5009407;28;20052;-72
2023/04/23 06:45:23;;;;;;;6.25;4.90;;;17.50;98.60;;;;;;4995921;28;20469;-72
2023/04/23 06:47:49;;;;;;;6.55;4.60;;;17.50;98.60;;;;;;4992401;28;20548;-71
2023/04/23 06:50:15;;;;;;;6.43;4.07;;;17.50;98.60;;;;;;4993383;28;20030;-72
2023/04/23 06:52:41;;;;;;;7.88;5.00;;;17.50;98.60;;;;;;4994948;28;20034;-72
2023/04/23 06:55:07;;;;;;;8.70;5.28;;;17.50;98.60;;;;;;4993539;28;20067;-70
2023/04/23 06:57:33;;;;;;;7.13;5.03;;;17.60;98.60;;;;;;4992779;28;20576;-70
2023/04/23 06:59:59;;;;;;;7.15;4.65;;;17.60;98.60;;;;;;4992707;28;20038;-71
2023/04/23 07:02:25;;;;;;;6.70;4.40;;;17.60;98.60;;;;;;4993176;28;20490;-72
2023/04/23 07:04:50;;;;;;;7.05;4.65;;;17.70;98.60;;;;;;4998942;28;20109;-72
2023/04/23 07:07:16;;;;;;;6.25;4.68;;;17.70;98.50;;;;;;4996787;28;20053;-72
2023/04/23 07:09:42;;;;;;;6.00;4.35;;;17.70;98.50;;;;;;4996034;28;20521;-72
2023/04/23 07:12:08;;;;;;;5.80;4.38;;;17.70;98.40;;;;;;4994560;28;20457;-72
2023/04/23 07:14:33;;;;;;;5.65;3.90;;;17.70;98.40;;;;;;4992523;28;20022;-72
2023/04/23 07:16:59;;;;;;;7.55;4.38;;;17.70;98.30;;;;;;4997033;28;20153;-72
2023/04/23 07:19:24;;;;;;;6.13;4.30;;;17.60;98.30;;;;;;4993887;28;20026;-72
2023/04/23 07:21:52;;;;;;;6.32;4.10;;;17.60;98.40;;;;;;4994357;28;20033;-71
2023/04/23 07:24:17;;;;;;;7.47;4.70;;;17.50;98.40;;;;;;4994254;28;20503;-70
2023/04/23 07:26:44;;;;;;;5.80;4.68;;;17.40;98.50;;;;;;4991223;28;20060;-73
2023/04/23 07:29:12;;;;;;;5.50;4.43;;;17.40;98.70;;;;;;5005261;28;20037;-71
2023/04/23 07:31:40;;;;;;;5.60;4.20;;;17.30;98.80;;;;;;4991912;28;20034;-71
2023/04/23 07:34:06;;;;;;;6.75;4.43;;;17.20;99.00;;;;;;4990367;28;20029;-71
2023/04/23 07:36:32;;;;;;;6.00;4.50;;;17.20;99.10;;;;;;4991181;28;20034;-70
2023/04/23 07:38:58;;;;;;;6.15;4.47;;;17.10;99.30;;;;;;4991219;28;20037;-70
2023/04/23 07:41:23;;;;;;;6.78;4.65;;;17.10;99.40;;;;;;4989661;28;20057;-70
2023/04/23 07:43:49;;;;;;;7.03;4.45;;;17.00;99.70;;;;;;4992673;28;20034;-74
2023/04/23 07:46:15;;;;;;;6.53;5.07;;;17.00;99.90;;;;;;4992814;28;20041;-70
2023/04/23 07:48:41;;;;;;;6.15;4.38;;;17.00;99.90;;;;;;4994611;28;20076;-70
2023/04/23 07:51:07;;;;;;;6.57;4.53;;;17.00;99.90;;;;;;4992448;28;20030;-70
2023/04/23 07:53:34;;;;;;;7.85;4.95;;;17.00;99.90;;;;;;4995024;28;21858;-70
2023/04/23 07:56:00;;;;;;;7.80;4.97;;;17.00;99.90;;;;;;4992847;28;20041;-70
2023/04/23 07:58:25;;;;;;;7.60;5.35;;;17.00;99.90;;;;;;4995248;28;20030;-70
2023/04/23 08:00:51;;;;;;;7.80;5.07;;;17.00;99.90;;;;;;4993147;28;20046;-70
2023/04/23 08:03:17;;;;;;;7.50;5.07;;;17.00;99.90;;;;;;4996880;28;20030;-70
2023/04/23 08:05:43;;;;;;;8.23;5.60;;;17.00;99.90;;;;;;4994937;28;20023;-70
2023/04/23 08:08:10;;;;;;;6.05;5.03;;;17.00;99.90;;;;;;4995323;28;20026;-70
2023/04/23 08:10:36;;;;;;;7.57;5.68;;;17.00;99.90;;;;;;4994896;28;20489;-70
2023/04/23 08:13:02;;;;;;;8.07;5.43;;;17.00;99.90;;;;;;4987981;28;20018;-71
2023/04/23 08:15:27;;;;;;;6.65;5.88;;;17.00;99.90;;;;;;4993968;28;20129;-71
2023/04/23 08:17:53;;;;;;;8.73;5.63;;;17.00;99.90;;;;;;4993261;28;20025;-72
2023/04/23 08:20:19;;;;;;;8.52;5.10;;;17.00;99.90;;;;;;4994704;28;20053;-71
2023/04/23 08:22:45;;;;;;;7.30;5.10;;;17.10;99.90;;;;;;4996248;28;20049;-72
2023/04/23 08:25:14;;;;;;;6.63;4.90;;;17.10;99.90;;;;;;4992659;28;20097;-71
2023/04/23 08:27:39;;;;;;;6.25;5.40;;;17.10;99.90;;;;;;4990639;28;20041;-71
2023/04/23 08:30:06;;;;;;;5.85;4.93;;;17.10;99.90;;;;;;4993422;28;20021;-72
2023/04/23 08:32:32;;;;;;;5.90;4.78;;;17.20;99.90;;;;;;4992899;28;20076;-72
2023/04/23 08:34:57;;;;;;;7.93;5.63;;;17.20;99.90;;;;;;4997962;28;20030;-73
2023/04/23 08:37:23;;;;;;;8.85;5.85;;;17.20;99.90;;;;;;4991120;28;20674;-73
2023/04/23 08:39:49;;;;;;;6.88;5.93;;;17.30;99.90;;;;;;4992713;28;20030;-72
2023/04/23 08:42:35;;;;;;;8.52;5.32;;;17.30;99.90;;;;;;4992620;28;20048;-73
2023/04/23 08:45:03;;;;;;;8.35;5.45;;;17.40;99.90;;;;;;4991738;28;20053;-73
2023/04/23 08:47:31;;;;;;;8.65;5.95;;;17.40;99.90;;;;;;4993641;28;20038;-71
2023/04/23 08:49:58;;;;;;;8.30;6.18;;;17.50;99.90;;;;;;4992747;28;20113;-75
2023/04/23 08:52:28;;;;;;;8.13;5.95;;;17.60;99.90;;;;;;4993807;28;20374;-74
2023/04/23 08:54:58;;;;;;;8.95;6.15;;;17.70;99.90;;;;;;4994385;28;20022;-74
2023/04/23 08:57:25;;;;;;;9.20;5.63;;;17.80;99.90;;;;;;4994049;28;20100;-74
2023/04/23 08:59:51;;;;;;;8.45;6.00;;;18.00;99.90;;;;;;4993248;28;20042;-75
2023/04/23 09:02:17;;;;;;;7.75;5.13;;;18.10;99.90;;;;;;4992815;28;20053;-73
2023/04/23 09:04:44;;;;;;;7.07;4.80;;;18.20;99.90;;;;;;4991634;28;20033;-74
2023/04/23 09:07:11;;;;;;;8.00;5.57;;;18.30;99.90;;;;;;4992928;28;20069;-74
2023/04/23 09:09:38;;;;;;;6.68;5.00;;;18.40;99.90;;;;;;4991205;28;20537;-74
2023/04/23 09:12:05;;;;;;;9.35;5.70;;;18.40;99.90;;;;;;4993034;28;20026;-74
2023/04/23 09:14:31;;;;;;;9.93;5.13;;;18.40;99.90;;;;;;4993143;28;20041;-74
2023/04/23 09:16:57;;;;;;;6.60;5.03;;;18.30;99.90;;;;;;5008039;28;20030;-75
2023/04/23 09:19:26;;;;;;;5.85;4.60;;;18.30;99.90;;;;;;4992620;28;20037;-73
2023/04/23 09:21:53;;;;;;;7.53;4.72;;;18.20;99.90;;;;;;4992651;28;20041;-75
2023/04/23 09:24:22;;;;;;;7.95;5.05;;;18.20;99.90;;;;;;4992653;28;20393;-75
2023/04/23 09:26:49;;;;;;;6.50;5.55;;;18.20;99.90;;;;;;4992179;28;20077;-74
2023/04/23 09:29:20;;;;;;;7.43;5.38;;;18.20;99.90;;;;;;4991663;28;20486;-74
2023/04/23 09:31:48;;;;;;;8.65;5.72;;;18.10;99.90;;;;;;4992003;28;20045;-73
2023/04/23 09:34:22;;;;;;;6.82;5.07;;;18.00;99.90;;;;;;4993354;28;20022;-73
2023/04/23 09:36:49;;;;;;;5.97;4.32;;;17.90;99.90;;;;;;4989737;28;20034;-73
2023/04/23 09:39:17;;;;;;;6.45;4.28;;;17.80;99.90;;;;;;4992717;28;20029;-73
2023/04/23 09:41:45;;;;;;;5.65;4.03;;;17.70;99.90;;;;;;4992463;28;20045;-73
2023/04/23 09:44:12;;;;;;;4.88;3.50;;;17.60;99.90;;;;;;4992515;28;20065;-74
2023/04/23 09:46:41;;;;;;;5.35;3.40;;;17.50;99.90;;;;;;4991328;28;20067;-74
2023/04/23 09:49:08;;;;;;;5.70;3.70;;;17.40;99.90;;;;;;4991120;28;20088;-65
2023/04/23 09:51:41;;;;;;;4.47;3.58;;;17.30;99.90;;;;;;4992562;28;20068;-67
2023/04/23 09:54:14;;;;;;;6.60;3.50;;;17.20;99.90;;;;;;4992301;28;20034;-64
2023/04/23 09:56:41;;;;;;;4.47;3.42;;;17.10;99.90;;;;;;5006865;28;20438;-65
2023/04/23 09:59:27;;;;;;;5.22;3.70;;;17.10;99.90;;;;;;4991641;28;20057;-66
2023/04/23 10:01:53;;;;;;;4.65;3.63;;;17.00;99.90;;;;;;4996060;28;20439;-66
2023/04/23 10:04:20;;;;;;;4.18;2.95;;;17.00;99.90;;;;;;4988871;28;20128;-66
2023/04/23 10:06:52;;;;;;;4.35;3.10;;;16.90;99.90;;;;;;4992975;28;20046;-65
2023/04/23 10:09:23;;;;;;;4.45;2.92;;;16.90;99.90;;;;;;4991959;28;20145;-65
2023/04/23 10:11:53;;;;;;;5.30;3.28;;;16.70;99.90;;;;;;4991294;28;20038;-65
2023/04/23 10:14:20;;;;;;;3.55;2.78;;;16.70;99.90;;;;;;4991686;28;20404;-65
2023/04/23 10:16:47;;;;;;;3.72;2.50;;;16.60;99.90;;;;;;4992738;28;20038;-65
2023/04/23 10:19:21;;;;;;;4.32;2.92;;;16.60;99.90;;;;;;5001333;28;20030;-65
2023/04/23 10:21:52;;;;;;;4.25;2.88;;;16.60;99.90;;;;;;4993846;28;20659;-64
2023/04/23 10:24:20;;;;;;;4.07;2.88;;;16.60;99.90;;;;;;4992248;28;20719;-63
2023/04/23 10:26:46;;;;;;;3.83;3.20;;;16.60;99.90;;;;;;4990727;28;20068;-65
2023/04/23 10:29:15;;;;;;;4.22;3.22;;;16.60;99.90;;;;;;4991696;28;20037;-65
2023/04/23 10:31:42;;;;;;;5.03;3.45;;;16.60;99.90;;;;;;4991999;28;20037;-65
2023/04/23 10:34:09;;;;;;;6.05;4.15;;;16.60;99.90;;;;;;4990674;28;20474;-65
2023/04/23 10:36:37;;;;;;;5.13;3.83;;;16.60;99.90;;;;;;4992224;28;20037;-66
2023/04/23 10:39:06;;;;;;;6.05;4.40;;;16.70;99.90;;;;;;4990854;28;20050;-66
2023/04/23 10:41:38;;;;;;;6.05;4.38;;;16.80;99.90;;;;;;4991895;28;20389;-69
2023/04/23 10:44:11;;;;;;;5.50;4.20;;;16.90;99.90;;;;;;4989728;28;20037;-69
2023/04/23 10:46:36;;;;;;;6.32;4.78;;;17.00;99.90;;;;;;4990019;28;20419;-69
2023/04/23 10:49:06;;;;;;;6.70;4.32;;;17.10;99.90;;;;;;4992291;28;20034;-69
2023/04/23 10:51:33;;;;;;;5.13;3.95;;;17.20;99.90;;;;;;4991686;28;20081;-69
2023/04/23 10:53:59;;;;;;;6.25;4.25;;;17.30;99.90;;;;;;4990293;28;20048;-69
2023/04/23 10:56:27;;;;;;;6.18;4.28;;;17.40;99.90;;;;;;4992388;28;20668;-69
2023/04/23 10:58:52;;;;;;;6.25;3.85;;;17.60;99.60;;;;;;4995103;28;20434;-69
2023/04/23 11:01:20;;;;;;;5.70;3.85;;;17.70;99.40;;;;;;4991397;28;20046;-70
2023/04/23 11:03:46;;;;;;;4.63;3.47;;;17.80;99.20;;;;;;4990433;28;20046;-70
2023/04/23 11:06:18;;;;;;;5.45;3.45;;;17.90;99.10;;;;;;4982849;28;20497;-70
2023/04/23 11:08:55;;;;;;;4.70;4.05;;;18.00;98.90;;;;;;4991129;28;20318;-70
2023/04/23 11:11:38;;;;;;;6.65;4.40;;;18.10;98.80;;;;;;4991004;28;20140;-70
2023/04/23 11:14:13;;;;;;;6.75;4.72;;;18.20;98.60;;;;;;4991157;28;20042;-70
2023/04/23 11:16:38;;;;;;;7.32;4.60;;;18.20;98.20;;;;;;4989481;28;20240;-70
2023/04/23 11:19:11;;;;;;;6.25;4.45;;;18.20;98.10;;;;;;4991008;28;20034;-70
2023/04/23 11:22:02;;;;;;;6.90;5.03;;;18.30;98.10;;;;;;4991472;28;20091;-70
2023/04/23 11:24:36;;;;;;;6.65;4.95;;;18.30;97.80;;;;;;4995398;28;20038;-71
2023/04/23 11:27:06;;;;;;;9.85;6.15;;;18.40;97.40;;;;;;4994100;28;20046;-71
2023/04/23 11:29:31;;;;;;;6.60;5.05;;;18.40;97.20;;;;;;4994748;28;20034;-70
2023/04/23 11:31:57;;;;;;;8.10;5.82;;;18.50;97.00;;;;;;4994864;28;20026;-68
2023/04/23 11:34:24;;;;;;;8.95;4.85;;;18.50;96.70;;;;;;4993593;28;20505;-69
2023/04/23 11:36:52;;;;;;;7.43;4.57;;;18.60;96.80;;;;;;4994546;28;20391;-69
2023/04/23 11:39:19;;;;;;;7.90;5.03;;;18.60;96.50;;;;;;4993623;28;20382;-70
2023/04/23 11:41:48;;;;;;;6.13;4.38;;;18.60;96.20;;;;;;4996809;28;20421;-69
2023/04/23 11:44:14;;;;;;;6.32;4.32;;;18.70;96.10;;;;;;4995892;28;20454;-70
2023/04/23 11:46:40;;;;;;;6.75;4.40;;;18.70;96.10;;;;;;4994509;28;20050;-69
2023/04/23 11:49:08;;;;;;;6.53;4.70;;;18.70;96.00;;;;;;4995286;28;20030;-69
2023/04/23 11:51:35;;;;;;;6.43;4.30;;;18.80;95.80;;;;;;4992778;28;20026;-69
2023/04/23 11:54:04;;;;;;;6.07;4.18;;;18.80;95.70;;;;;;4994522;28;20038;-71
2023/04/23 11:56:34;;;;;;;6.55;4.50;;;18.90;95.80;;;;;;4995375;28;20093;-70
2023/04/23 11:59:02;;;;;;;5.13;4.13;;;18.90;95.70;;;;;;4993608;28;20477;-70
2023/04/23 12:01:40;;;;;;;6.78;4.97;;;19.00;95.70;;;;;;4992004;28;20053;-71
2023/04/23 12:04:27;;;;;;;6.57;5.10;;;19.00;95.50;;;;;;4994040;28;20054;-71
2023/04/23 12:06:54;;;;;;;5.88;4.43;;;19.00;95.50;;;;;;4994844;28;20064;-69
2023/04/23 12:09:22;;;;;;;5.50;4.15;;;19.00;95.20;;;;;;4992671;28;20129;-70
2023/04/23 12:11:51;;;;;;;6.47;4.25;;;18.90;95.10;;;;;;4993696;28;20738;-71
2023/04/23 12:14:19;;;;;;;6.00;4.00;;;18.90;94.90;;;;;;4994575;28;20033;-70
2023/04/23 12:16:51;;;;;;;6.00;4.25;;;18.90;94.70;;;;;;4994295;28;20069;-72
2023/04/23 12:19:25;;;;;;;6.50;3.88;;;18.90;94.70;;;;;;4993466;28;20037;-71
2023/04/23 12:21:53;;;;;;;4.53;3.50;;;18.80;94.40;;;;;;4992684;28;20045;-70
2023/04/23 12:24:21;;;;;;;4.07;3.15;;;18.90;94.40;;;;;;4992131;28;20045;-70
2023/04/23 12:26:50;;;;;;;5.20;3.00;;;19.00;93.90;;;;;;4993590;28;20519;-71
2023/04/23 12:29:17;;;;;;;4.95;3.33;;;19.00;93.80;;;;;;4993479;28;20292;-70
2023/04/23 12:31:43;;;;;;;5.00;3.30;;;19.10;93.90;;;;;;4994745;28;20037;-71
2023/04/23 12:34:09;;;;;;;5.85;2.78;;;19.20;94.10;;;;;;4993050;28;20040;-71
2023/04/23 12:36:36;;;;;;;3.83;2.80;;;19.30;93.80;;;;;;4995101;28;20046;-71
2023/04/23 12:39:32;;;;;;;4.18;2.70;;;19.40;93.50;;;;;;4994509;28;20096;-71
2023/04/23 12:42:09;;;;;;;4.78;2.70;;;19.50;93.60;;;;;;4995430;28;20527;-71